Pagrindinis puslapis
METAR-TAF:

METAR-TAF

Oro uostai :

McKinley Park, Aliaska, Jungtinės Amerikos Valstijos

platuma: 63-44N, ilguma: 148-55W, Aukštis: 524 m

Dabartinis oras

Ataskaita buvo paskelbta 20 minutes, ne 20:56 UTC
Vėjas 3 kt iš Šiaurės
Temperatūra 3°C
Drėgmė 81%
Slėgis 997 hPa
Matomumas: 16.1 km
Apsiniaukę ne aukštis 2400 ft
lietus

METAR: PAIN 212056Z AUTO 35003KT 10SM -RA OVC024 03/00 A2945 RMK AO2 SLP998 P0000 60000 T00330000 53014

Laikas: 13:16 (21:16 UTC)


TAF: trūkstamas

Orai ataskaitas ir orų prognozės (METAR, TAF).

turimą stotys yra geltonos ir raudonos taškus žemėlapyje.

Perkelti pele per norėdami pamatyti stoties vardą.

Tada spustelėkite, norėdami matyti oro stebėjimo ir prognozės.

Norėdami pakeisti žemėlapį: spustelėkite ant žalios mygtukų su juodo kryžiaus žemyn,; žalią mygtuką su brūkšneliu, jei norite nutolinti; arba žalių rodyklių gretimoms žemėlapius.


METAR-TAF: